createdAt,value
2016-04-26T00:00:46.109Z,55.98
2016-04-26T00:01:46.143Z,55.7
2016-04-26T00:02:46.145Z,56.74
2016-04-26T00:03:46.148Z,56.46
2016-04-26T00:04:46.167Z,56.17
2016-04-26T00:05:46.174Z,56.65
2016-04-26T00:06:46.176Z,55.41
2016-04-26T00:07:46.195Z,55.6
2016-04-26T00:08:46.212Z,55.89
2016-04-26T00:09:46.231Z,55.6
2016-04-26T00:10:46.234Z,55.51
2016-04-26T00:11:46.236Z,55.41
2016-04-26T00:12:46.239Z,55.51
2016-04-26T00:13:46.257Z,55.13
2016-04-26T00:14:46.260Z,59.11
2016-04-26T00:15:46.309Z,57.12
2016-04-26T00:16:46.297Z,55.41
2016-04-26T00:17:46.300Z,54.85
2016-04-26T00:18:46.303Z,54.75
2016-04-26T00:19:46.305Z,54.37
2016-04-26T00:20:46.323Z,54.94
2016-04-26T00:21:46.341Z,56.46
2016-04-26T00:22:46.360Z,55.04
2016-04-26T00:23:46.378Z,54.08
2016-04-26T00:24:46.381Z,53.8
2016-04-26T00:25:46.368Z,54.75
2016-04-26T00:26:46.402Z,54.37
2016-04-26T00:27:46.405Z,54.08
2016-04-26T00:28:46.407Z,55.32
2016-04-26T00:29:46.441Z,55.04
2016-04-26T00:30:46.460Z,54.08
2016-04-26T00:31:46.447Z,54.37
2016-04-26T00:32:46.449Z,53.7
2016-04-26T00:33:46.468Z,54.27
2016-04-26T00:34:46.470Z,53.42
2016-04-26T00:35:46.488Z,54.18
2016-04-26T00:36:46.507Z,54.85
2016-04-26T00:37:46.510Z,53.8
2016-04-26T00:38:46.512Z,53.89
2016-04-26T00:39:46.546Z,54.08
2016-04-26T00:40:46.549Z,53.7
2016-04-26T00:41:46.551Z,53.64
2016-04-26T00:42:46.554Z,53.89
2016-04-26T00:43:46.572Z,53.99
2016-04-26T00:44:46.575Z,52.47
2016-04-26T00:45:46.609Z,54.27
2016-04-26T00:46:46.611Z,53.89
2016-04-26T00:47:46.646Z,52.47
2016-04-26T00:48:46.648Z,53.16
2016-04-26T00:49:46.650Z,54.78
2016-04-26T00:50:46.654Z,53.64
2016-04-26T00:51:46.656Z,53.83
2016-04-26T00:52:46.675Z,54.78
2016-04-26T00:53:46.678Z,52.59
2016-04-26T00:54:46.696Z,52.02
2016-04-26T00:55:46.714Z,52.78
2016-04-26T00:56:46.716Z,53.45
2016-04-26T00:57:46.735Z,52.97
2016-04-26T00:58:46.738Z,52.12
2016-04-26T00:59:46.741Z,52.87
2016-04-26T01:00:46.758Z,52.31
2016-04-26T01:01:46.777Z,51.93
2016-04-26T01:02:46.779Z,52.12
2016-04-26T01:03:46.783Z,53.07
2016-04-26T01:04:46.802Z,53.45
2016-04-26T01:05:46.804Z,51.74
2016-04-26T01:06:46.822Z,54.11
2016-04-26T01:07:46.824Z,53.92
2016-04-26T01:08:46.843Z,51.83
2016-04-26T01:09:46.907Z,51.45
2016-04-26T01:10:46.865Z,51.55
2016-04-26T01:11:46.882Z,50.41
2016-04-26T01:12:46.931Z,50.7
2016-04-26T01:13:46.904Z,50.12
2016-04-26T01:14:46.906Z,50.6
2016-04-26T01:15:46.924Z,50.6
2016-04-26T01:16:46.787Z,51.36
2016-04-26T01:17:46.945Z,51.64
2016-04-26T01:18:46.948Z,50.03
2016-04-26T01:19:47.014Z,50.6
2016-04-26T01:20:46.984Z,51.55
2016-04-26T01:21:46.986Z,51.83
2016-04-26T01:22:47.006Z,51.07
2016-04-26T01:23:47.008Z,51.55
2016-04-26T01:24:46.870Z,51.64
2016-04-26T01:25:47.030Z,50.12
2016-04-26T01:26:47.063Z,50.12
2016-04-26T01:27:47.050Z,50.31
2016-04-26T01:28:47.069Z,50.98
2016-04-26T01:29:47.072Z,51.26
2016-04-26T01:30:47.089Z,51.45
2016-04-26T01:31:47.311Z,51.26
2016-04-26T01:32:47.110Z,51.64
2016-04-26T01:33:47.129Z,50.03
2016-04-26T01:34:47.132Z,50.51
2016-04-26T01:35:47.150Z,50.12
2016-04-26T01:36:47.152Z,51.36
2016-04-26T01:37:47.155Z,50.7
2016-04-26T01:38:47.174Z,50.7
2016-04-26T01:39:47.208Z,51.83
2016-04-26T01:40:47.195Z,52.78
2016-04-26T01:41:47.228Z,53.07
2016-04-26T01:42:47.216Z,52.02
2016-04-26T01:43:47.234Z,50.51
2016-04-26T01:44:47.237Z,50.6
2016-04-26T01:45:47.254Z,50.89
2016-04-26T01:46:47.165Z,50.6
2016-04-26T01:47:47.276Z,52.02
2016-04-26T01:48:47.294Z,51.07
2016-04-26T01:49:47.297Z,51.45
2016-04-26T01:50:47.300Z,50.6
2016-04-26T01:51:47.317Z,51.64
2016-04-26T01:52:47.337Z,50.22
2016-04-26T01:53:47.339Z,51.07
2016-04-26T01:54:47.357Z,51.55
2016-04-26T01:55:47.376Z,50.41
2016-04-26T01:56:47.378Z,52.78
2016-04-26T01:57:47.380Z,52.87
2016-04-26T01:58:47.400Z,52.02
2016-04-26T01:59:47.417Z,50.98
2016-04-26T02:00:47.420Z,50.03
2016-04-26T02:01:47.455Z,50.79
2016-04-26T02:02:47.457Z,50.03
2016-04-26T02:03:47.460Z,48.99
2016-04-26T02:04:47.463Z,49.84
2016-04-26T02:05:47.465Z,52.12
2016-04-26T02:06:47.484Z,52.5
2016-04-26T02:07:47.502Z,51.07
2016-04-26T02:08:47.520Z,51.07
2016-04-26T02:09:47.524Z,50.03
2016-04-26T02:10:47.541Z,49.55
2016-04-26T02:11:47.543Z,49.08
2016-04-26T02:12:47.546Z,49.65
2016-04-26T02:13:47.580Z,49.84
2016-04-26T02:14:47.567Z,50.6
2016-04-26T02:15:47.601Z,51.07
2016-04-26T02:16:47.948Z,51.36
2016-04-26T02:17:47.654Z,51.74
2016-04-26T02:18:47.625Z,51.64
2016-04-26T02:19:47.628Z,52.02
2016-04-26T02:20:47.646Z,49.93
2016-04-26T02:21:47.648Z,50.98
2016-04-26T02:22:47.689Z,50.6
2016-04-26T02:23:47.677Z,51.26
2016-04-26T02:24:47.695Z,50.6
2016-04-26T02:25:47.697Z,50.22
2016-04-26T02:26:47.700Z,51.45
2016-04-26T02:27:47.735Z,51.64
2016-04-26T02:28:47.737Z,50.98
2016-04-26T02:29:47.740Z,51.64
2016-04-26T02:30:47.742Z,51.45
2016-04-26T02:31:48.605Z,51.07
2016-04-26T02:32:48.357Z,51.07
2016-04-26T02:33:47.781Z,51.36
2016-04-26T02:34:47.800Z,51.64
2016-04-26T02:35:47.818Z,51.36
2016-04-26T02:36:47.821Z,52.97
2016-04-26T02:37:47.870Z,51.64
2016-04-26T02:38:47.843Z,51.45
2016-04-26T02:39:47.860Z,52.69
2016-04-26T02:40:47.879Z,51.74
2016-04-26T02:41:47.881Z,50.79
2016-04-26T02:42:47.883Z,51.93
2016-04-26T02:43:47.903Z,52.24
2016-04-26T02:44:47.921Z,51.67
2016-04-26T02:45:47.923Z,51.55
2016-04-26T02:46:47.785Z,52.12
2016-04-26T02:47:49.023Z,52.81
2016-04-26T02:48:47.963Z,54.61
2016-04-26T02:49:47.965Z,52.14
2016-04-26T02:50:47.983Z,51.29
2016-04-26T02:51:48.018Z,51.67
2016-04-26T02:52:48.020Z,51.48
2016-04-26T02:53:48.022Z,51.1
2016-04-26T02:54:48.026Z,50.34
2016-04-26T02:55:48.027Z,50.91
2016-04-26T02:56:48.047Z,50.91
2016-04-26T02:57:48.065Z,50.81
2016-04-26T02:58:48.083Z,52.05
2016-04-26T02:59:48.086Z,52.91
2016-04-26T03:00:48.089Z,52.5
2016-04-26T03:01:48.763Z,52.62
2016-04-26T03:02:47.968Z,52.05
2016-04-26T03:03:48.129Z,51.29
2016-04-26T03:04:48.146Z,52.24
2016-04-26T03:05:48.149Z,51.86
2016-04-26T03:06:48.167Z,51.95
2016-04-26T03:07:48.185Z,53.57
2016-04-26T03:08:48.188Z,53.85
2016-04-26T03:09:48.190Z,52.33
2016-04-26T03:10:48.209Z,51.39
2016-04-26T03:11:48.212Z,51.2
2016-04-26T03:12:48.231Z,50.24
2016-04-26T03:13:48.248Z,50.43
2016-04-26T03:14:48.267Z,50.53
2016-04-26T03:15:48.253Z,51.39
2016-04-26T03:16:48.289Z,52.81
2016-04-26T03:17:48.307Z,52.43
2016-04-26T03:18:48.295Z,50.81
2016-04-26T03:19:48.297Z,50.81
2016-04-26T03:20:48.315Z,51.76
2016-04-26T03:21:48.334Z,50.72
2016-04-26T03:22:48.351Z,50.62
2016-04-26T03:23:48.354Z,50.62
2016-04-26T03:24:48.373Z,51.39
2016-04-26T03:25:48.376Z,54.24
2016-04-26T03:26:48.394Z,52.91
2016-04-26T03:27:48.412Z,50.81
2016-04-26T03:28:48.415Z,50.34
2016-04-26T03:29:48.417Z,50.05
2016-04-26T03:30:48.436Z,51.01
2016-04-26T03:31:49.064Z,50.72
2016-04-26T03:32:48.457Z,50.24
2016-04-26T03:33:48.475Z,50.43
2016-04-26T03:34:48.478Z,49.29
2016-04-26T03:35:48.496Z,51.57
2016-04-26T03:36:48.499Z,49.96
2016-04-26T03:37:48.517Z,50.34
2016-04-26T03:38:48.536Z,50.53
2016-04-26T03:39:48.538Z,49.96
2016-04-26T03:40:48.557Z,51.2
2016-04-26T03:41:48.575Z,50.05
2016-04-26T03:42:48.593Z,50.62
2016-04-26T03:43:48.596Z,49.68
2016-04-26T03:44:48.614Z,50.34
2016-04-26T03:45:48.602Z,50.05
2016-04-26T03:46:48.666Z,50.91
2016-04-26T03:47:48.653Z,51.48
2016-04-26T03:48:48.641Z,51.57
2016-04-26T03:49:48.659Z,50.62
2016-04-26T03:50:48.677Z,51.48
2016-04-26T03:51:48.680Z,51.57
2016-04-26T03:52:48.682Z,50.62
2016-04-26T03:53:48.701Z,50.34
2016-04-26T03:54:48.703Z,50.05
2016-04-26T03:55:48.753Z,50.05
2016-04-26T03:56:48.740Z,51.29
2016-04-26T03:57:48.742Z,50.72
2016-04-26T03:58:48.762Z,50.62
2016-04-26T03:59:48.780Z,52.24
2016-04-26T04:00:48.782Z,52.05
2016-04-26T04:01:48.645Z,50.91
2016-04-26T04:02:49.631Z,50.72
2016-04-26T04:03:48.805Z,49.58
2016-04-26T04:04:48.825Z,50.62
2016-04-26T04:05:48.842Z,51.29
2016-04-26T04:06:48.845Z,49.96
2016-04-26T04:07:48.864Z,52.24
2016-04-26T04:08:48.882Z,51.01
2016-04-26T04:09:48.894Z,50.15
2016-04-26T04:10:48.913Z,50.05
2016-04-26T04:11:48.899Z,49.49
2016-04-26T04:12:48.918Z,50.05
2016-04-26T04:13:48.937Z,50.81
2016-04-26T04:14:48.939Z,50.24
2016-04-26T04:15:48.957Z,50.05
2016-04-26T04:16:49.117Z,49.58
2016-04-26T04:17:48.978Z,49.29
2016-04-26T04:18:48.997Z,49.01
2016-04-26T04:19:49.000Z,48.91
2016-04-26T04:20:49.033Z,50.24
2016-04-26T04:21:49.036Z,50.24
2016-04-26T04:22:49.039Z,49.58
2016-04-26T04:23:49.073Z,49.29
2016-04-26T04:24:49.059Z,50.24
2016-04-26T04:25:49.094Z,51.39
2016-04-26T04:26:49.097Z,50.72
2016-04-26T04:27:48.333Z,52.08
2016-04-26T04:28:49.117Z,50.08
2016-04-26T04:29:49.135Z,49.29
2016-04-26T04:30:49.155Z,50.18
2016-04-26T04:31:49.798Z,49.01
2016-04-26T04:32:49.738Z,48.75
2016-04-26T04:33:49.178Z,50.15
2016-04-26T04:34:49.180Z,50.62
2016-04-26T04:35:49.183Z,51.6
2016-04-26T04:36:49.201Z,51.31
2016-04-26T04:37:49.219Z,50.74
2016-04-26T04:38:49.222Z,50.18
2016-04-26T04:39:49.460Z,48.85
2016-04-26T04:40:49.243Z,49.22
2016-04-26T04:41:49.262Z,48.85
2016-04-26T04:42:49.296Z,49.22
2016-04-26T04:43:49.282Z,48.75
2016-04-26T04:44:49.301Z,48.75
2016-04-26T04:45:49.429Z,49.13
2016-04-26T04:46:49.337Z,47.99
2016-04-26T04:47:49.200Z,48.37
2016-04-26T04:48:49.343Z,47.8
2016-04-26T04:49:49.376Z,48.08
2016-04-26T04:50:49.379Z,48.66
2016-04-26T04:51:49.382Z,49.01
2016-04-26T04:52:49.384Z,49.39
2016-04-26T04:53:49.403Z,50.65
2016-04-26T04:54:49.422Z,51.12
2016-04-26T04:55:49.424Z,49.6
2016-04-26T04:56:49.442Z,48.75
2016-04-26T04:57:49.445Z,49.13
2016-04-26T04:58:49.464Z,47.89
2016-04-26T04:59:49.513Z,48.37
2016-04-26T05:00:49.500Z,49.13
2016-04-26T05:01:49.347Z,47.89
2016-04-26T05:02:49.536Z,48.08
2016-04-26T05:03:49.524Z,48.37
2016-04-26T05:04:49.527Z,48.37
2016-04-26T05:05:49.544Z,48.37
2016-04-26T05:06:49.580Z,49.51
2016-04-26T05:07:49.565Z,49.41
2016-04-26T05:08:49.585Z,48.85
2016-04-26T05:09:49.588Z,49.51
2016-04-26T05:10:49.605Z,48.75
2016-04-26T05:11:49.624Z,48.08
2016-04-26T05:12:49.626Z,49.13
2016-04-26T05:13:49.645Z,49.04
2016-04-26T05:14:49.648Z,48.85
2016-04-26T05:15:49.665Z,48.37
2016-04-26T05:16:49.871Z,49.41
2016-04-26T05:17:51.936Z,48.94
2016-04-26T05:18:49.705Z,50.08
2016-04-26T05:19:49.724Z,47.8
2016-04-26T05:20:49.742Z,48.08
2016-04-26T05:21:49.745Z,48.66
2016-04-26T05:23:03.856Z,48.18
2016-04-26T05:23:49.765Z,49.22
2016-04-26T05:24:49.768Z,49.51
2016-04-26T05:25:49.786Z,47.89
2016-04-26T05:26:49.805Z,47.33
2016-04-26T05:27:49.808Z,48.46
2016-04-26T05:28:49.826Z,49.22
2016-04-26T05:29:49.844Z,48.37
2016-04-26T05:30:49.847Z,48.27
2016-04-26T05:31:49.881Z,47.71
2016-04-26T05:32:49.899Z,47.8
2016-04-26T05:33:49.886Z,47.71
2016-04-26T05:34:49.905Z,48.37
2016-04-26T05:35:49.938Z,50.65
2016-04-26T05:36:49.925Z,51.03
2016-04-26T05:37:49.927Z,51.6
2016-04-26T05:38:49.946Z,51.41
2016-04-26T05:39:49.965Z,49.32
2016-04-26T05:40:49.967Z,47.71
2016-04-26T05:41:49.985Z,46.94
2016-04-26T05:42:49.988Z,47.8
2016-04-26T05:43:50.007Z,47.89
2016-04-26T05:44:50.009Z,49.32
2016-04-26T05:45:50.027Z,47.71
2016-04-26T05:46:50.045Z,47.8
2016-04-26T05:47:50.564Z,46.37
2016-04-26T05:48:50.067Z,47.61
2016-04-26T05:49:49.929Z,47.8
2016-04-26T05:50:50.088Z,48.66
2016-04-26T05:51:50.137Z,49.32
2016-04-26T05:52:50.140Z,48.66
2016-04-26T05:53:50.143Z,47.34
2016-04-26T05:54:50.161Z,46.97
2016-04-26T05:55:50.164Z,47.13
2016-04-26T05:56:50.186Z,47.89
2016-04-26T05:57:50.172Z,49.04
2016-04-26T05:58:50.321Z,48.68
2016-04-26T05:59:50.199Z,48.96
2016-04-26T06:00:50.217Z,46.78
2016-04-26T06:01:50.245Z,46.97
2016-04-26T06:02:50.232Z,46.4
2016-04-26T06:03:50.250Z,45.92
2016-04-26T06:04:50.254Z,46.94
2016-04-26T06:05:50.256Z,47.33
2016-04-26T06:06:50.275Z,47.06
2016-04-26T06:07:50.293Z,47.06
2016-04-26T06:08:50.342Z,46.88
2016-04-26T06:09:50.313Z,46.4
2016-04-26T06:10:50.332Z,46.97
2016-04-26T06:11:50.335Z,46.88
2016-04-26T06:12:50.337Z,47.54
2016-04-26T06:13:50.371Z,46.59
2016-04-26T06:14:50.390Z,47.06
2016-04-26T06:15:50.393Z,46.59
2016-04-26T06:16:50.396Z,46.97
2016-04-26T06:17:50.257Z,46.88
2016-04-26T06:18:50.432Z,46.4
2016-04-26T06:19:50.856Z,47.06
2016-04-26T06:20:50.453Z,46.68
2016-04-26T06:21:50.471Z,46.4
2016-04-26T06:22:50.493Z,45.83
2016-04-26T06:23:50.339Z,45.54
2016-04-26T06:24:50.513Z,45.54
2016-04-26T06:25:50.548Z,46.2
2016-04-26T06:26:50.675Z,47.82
2016-04-26T06:27:50.568Z,47.16
2016-04-26T06:28:55.524Z,47.06
2016-04-26T06:29:50.559Z,45.64
2016-04-26T06:30:50.577Z,45.07
2016-04-26T06:31:50.595Z,45.26
2016-04-26T06:32:51.020Z,45.45
2016-04-26T06:33:50.615Z,44.97
2016-04-26T06:34:50.556Z,45.64
2016-04-26T06:35:50.637Z,46.68
2016-04-26T06:36:50.655Z,45.35
2016-04-26T06:37:50.658Z,46.68
2016-04-26T06:38:50.675Z,46.97
2016-04-26T06:39:50.695Z,46.11
2016-04-26T06:40:50.713Z,46.97
2016-04-26T06:41:50.715Z,46.49
2016-04-26T06:42:50.719Z,46.78
2016-04-26T06:43:50.736Z,46.04
2016-04-26T06:44:50.755Z,46.23
2016-04-26T06:45:50.773Z,46.01
2016-04-26T06:46:50.807Z,45
2016-04-26T06:47:50.763Z,45
2016-04-26T06:48:50.812Z,46.14
2016-04-26T06:49:50.830Z,45.95
2016-04-26T06:50:50.865Z,45.28
2016-04-26T06:51:50.851Z,45.37
2016-04-26T06:52:50.870Z,45.47
2016-04-26T06:53:50.873Z,45
2016-04-26T06:54:50.891Z,45.47
2016-04-26T06:55:50.893Z,45.28
2016-04-26T06:56:50.896Z,45.47
2016-04-26T06:57:50.929Z,46.04
2016-04-26T06:58:50.932Z,46.04
2016-04-26T06:59:50.951Z,45.56
2016-04-26T07:00:50.953Z,47.18
2016-04-26T07:01:50.972Z,47.09
2016-04-26T07:02:50.865Z,45.47
2016-04-26T07:03:50.993Z,45.28
2016-04-26T07:04:51.012Z,44.61
2016-04-26T07:05:51.031Z,45.18
2016-04-26T07:06:51.033Z,45
2016-04-26T07:07:51.067Z,44.23
2016-04-26T07:08:51.085Z,45.95
2016-04-26T07:09:51.087Z,45.75
2016-04-26T07:10:51.090Z,44.71
2016-04-26T07:11:51.092Z,46.04
2016-04-26T07:12:51.111Z,44.42
2016-04-26T07:13:51.130Z,43.95
2016-04-26T07:14:51.148Z,43.85
2016-04-26T07:15:51.150Z,43.76
2016-04-26T07:16:51.169Z,43.66
2016-04-26T07:17:51.031Z,43.38
2016-04-26T07:18:51.191Z,44.52
2016-04-26T07:19:51.193Z,44.61
2016-04-26T07:20:51.211Z,43.66
2016-04-26T07:21:51.229Z,43.66
2016-04-26T07:22:51.237Z,43.47
2016-04-26T07:23:51.254Z,42.9
2016-04-26T07:24:51.273Z,43.66
2016-04-26T07:25:51.276Z,43.85
2016-04-26T07:26:51.295Z,44.04
2016-04-26T07:27:51.313Z,44.13
2016-04-26T07:28:51.331Z,43.38
2016-04-26T07:29:51.349Z,43.09
2016-04-26T07:30:51.351Z,43.97
2016-04-26T07:31:51.370Z,43.59
2016-04-26T07:32:51.764Z,43.59
2016-04-26T07:33:51.391Z,43.4
2016-04-26T07:34:51.395Z,43.68
2016-04-26T07:35:51.411Z,43.49
2016-04-26T07:36:51.430Z,43.78
2016-04-26T07:37:51.450Z,43.4
2016-04-26T07:38:51.467Z,43.4
2016-04-26T07:39:51.470Z,42.83
2016-04-26T07:40:51.472Z,43.59
2016-04-26T07:41:51.491Z,43.68
2016-04-26T07:42:51.509Z,42.92
2016-04-26T07:43:51.527Z,43.02
2016-04-26T07:44:51.546Z,42.64
2016-04-26T07:45:51.563Z,43.11
2016-04-26T07:46:51.567Z,43.68
2016-04-26T07:47:51.569Z,43.3
2016-04-26T07:48:51.588Z,42.92
2016-04-26T07:49:51.607Z,43.49
2016-04-26T07:50:51.609Z,43.3
2016-04-26T07:51:51.627Z,43.49
2016-04-26T07:52:51.646Z,43.4
2016-04-26T07:53:51.663Z,44.35
2016-04-26T07:54:51.666Z,42.76
2016-04-26T07:55:51.684Z,41.89
2016-04-26T07:56:51.704Z,42.47
2016-04-26T07:57:51.722Z,42.08
2016-04-26T07:58:51.724Z,41.99
2016-04-26T07:59:51.743Z,41.71
2016-04-26T08:00:51.761Z,41.52
2016-04-26T08:01:51.778Z,41.42
2016-04-26T08:02:53.001Z,41.89
2016-04-26T08:03:51.798Z,41.04
2016-04-26T08:04:51.815Z,42.08
2016-04-26T08:05:51.834Z,41.8
2016-04-26T08:06:51.836Z,42.37
2016-04-26T08:07:51.839Z,40.66
2016-04-26T08:08:51.858Z,41.8
2016-04-26T08:09:51.876Z,41.99
2016-04-26T08:10:51.895Z,42.76
2016-04-26T08:11:51.897Z,42.47
2016-04-26T08:12:51.916Z,42.28
2016-04-26T08:13:51.934Z,42.76
2016-04-26T08:14:51.952Z,41.52
2016-04-26T08:15:51.955Z,42.37
2016-04-26T08:16:51.972Z,40.56
2016-04-26T08:17:52.697Z,41.71
2016-04-26T08:18:53.450Z,42.56
2016-04-26T08:19:52.028Z,42.76
2016-04-26T08:20:52.047Z,41.8
2016-04-26T08:21:52.049Z,41.61
2016-04-26T08:22:52.052Z,42.18
2016-04-26T08:23:51.992Z,41.42
2016-04-26T08:24:52.104Z,42.28
2016-04-26T08:25:52.091Z,41.61
2016-04-26T08:26:52.124Z,42.28
2016-04-26T08:27:52.127Z,43.42
2016-04-26T08:28:52.137Z,43.42
2016-04-26T08:29:52.217Z,42.54
2016-04-26T08:30:52.177Z,43.42
2016-04-26T08:31:52.221Z,43.9
2016-04-26T08:32:52.794Z,43.13
2016-04-26T08:33:52.231Z,43.9
2016-04-26T08:34:52.433Z,43.8
2016-04-26T08:35:52.444Z,42.56
2016-04-26T08:36:52.477Z,42.08
2016-04-26T08:37:52.511Z,42.47
2016-04-26T08:38:52.544Z,43.13
2016-04-26T08:39:52.562Z,43.61
2016-04-26T08:40:52.594Z,43.8
2016-04-26T08:41:52.619Z,44.27
2016-04-26T08:42:52.642Z,44.85
2016-04-26T08:43:52.649Z,45.32
2016-04-26T08:44:52.674Z,43.32
2016-04-26T08:45:52.682Z,43.99
2016-04-26T08:46:52.701Z,44.94
2016-04-26T08:47:52.565Z,44.18
2016-04-26T08:48:52.992Z,43.51
2016-04-26T08:49:52.778Z,43.51
2016-04-26T08:50:52.799Z,43.04
2016-04-26T08:51:52.786Z,42.08
2016-04-26T08:52:52.805Z,43.51
2016-04-26T08:53:52.652Z,43.32
2016-04-26T08:54:52.828Z,43.04
2016-04-26T08:55:52.847Z,42.28
2016-04-26T08:56:52.850Z,41.99
2016-04-26T08:57:52.868Z,41.8
2016-04-26T08:58:52.888Z,42.66
2016-04-26T08:59:52.907Z,42.76
2016-04-26T09:00:52.924Z,42.47
2016-04-26T09:01:52.927Z,40.94
2016-04-26T09:02:53.148Z,42.08
2016-04-26T09:03:53.011Z,42.18
2016-04-26T09:04:52.967Z,42.28
2016-04-26T09:05:52.984Z,41.71
2016-04-26T09:06:53.004Z,41.23
2016-04-26T09:07:53.006Z,41.99
2016-04-26T09:08:53.024Z,40.87
2016-04-26T09:09:53.042Z,41.72
2016-04-26T09:10:53.061Z,41.8
2016-04-26T09:11:53.079Z,41.71
2016-04-26T09:12:53.082Z,41.52
2016-04-26T09:13:53.100Z,41.53
2016-04-26T09:14:53.119Z,41.06
2016-04-26T09:15:53.121Z,41.44
2016-04-26T09:16:53.139Z,40.97
2016-04-26T09:17:53.611Z,42.01
2016-04-26T09:18:53.348Z,42.77
2016-04-26T09:19:53.194Z,41.72
2016-04-26T09:20:53.197Z,42.2
2016-04-26T09:21:53.216Z,41.82
2016-04-26T09:22:53.078Z,41.8
2016-04-26T09:23:53.268Z,42.49
2016-04-26T09:24:53.254Z,41.82
2016-04-26T09:25:53.274Z,41.72
2016-04-26T09:26:53.291Z,41.06
2016-04-26T09:27:53.294Z,42.2
2016-04-26T09:28:53.313Z,42.01
2016-04-26T09:29:53.330Z,42.2
2016-04-26T09:30:53.349Z,42.2
2016-04-26T09:31:53.382Z,40.68
2016-04-26T09:32:53.338Z,42.01
2016-04-26T09:33:53.388Z,41.06
2016-04-26T09:34:53.391Z,41.63
2016-04-26T09:35:53.425Z,41.63
2016-04-26T09:36:53.429Z,41.72
2016-04-26T09:38:53.464Z,41.23
2016-04-26T09:39:53.482Z,42.08
2016-04-26T09:40:53.485Z,42.66
2016-04-26T09:41:53.520Z,42.68
2016-04-26T09:42:53.522Z,43.44
2016-04-26T09:43:53.525Z,42.4
2016-04-26T09:44:53.543Z,42.2
2016-04-26T09:45:53.561Z,42.2
2016-04-26T09:46:53.564Z,42.77
2016-04-26T09:47:54.269Z,41.25
2016-04-26T09:48:53.460Z,42.49
2016-04-26T09:49:53.619Z,41.72
2016-04-26T09:50:53.622Z,42.4
2016-04-26T09:51:53.640Z,41.35
2016-04-26T09:52:53.658Z,42.11
2016-04-26T09:53:53.677Z,42.58
2016-04-26T09:54:53.695Z,42.4
2016-04-26T09:55:53.698Z,42.2
2016-04-26T09:56:53.731Z,41.92
2016-04-26T09:57:53.734Z,42.77
2016-04-26T09:58:53.752Z,43.82
2016-04-26T09:59:53.755Z,44.3
2016-04-26T10:00:53.774Z,42.96
2016-04-26T10:01:53.791Z,43.54
2016-04-26T10:02:53.716Z,43.82
2016-04-26T10:03:53.829Z,43.91
2016-04-26T10:04:53.846Z,45.54
2016-04-26T10:05:53.865Z,46.58
2016-04-26T10:06:53.884Z,45.92
2016-04-26T10:07:53.871Z,46.2
2016-04-26T10:08:53.904Z,46.11
2016-04-26T10:09:53.907Z,45.54
2016-04-26T10:10:53.909Z,45.18
2016-04-26T10:11:53.929Z,44.01
2016-04-26T10:12:53.946Z,44.2
2016-04-26T10:13:53.981Z,46.01
2016-04-26T10:14:53.983Z,45.25
2016-04-26T10:15:54.001Z,44.01
2016-04-26T10:16:54.003Z,44.78
2016-04-26T10:17:54.023Z,45.15
2016-04-26T10:18:54.041Z,46.3
2016-04-26T10:19:56.325Z,47.34
2016-04-26T10:20:54.078Z,46.87
2016-04-26T10:21:54.080Z,47.82
2016-04-26T10:22:54.113Z,48.39
2016-04-26T10:23:54.117Z,48.87
2016-04-26T10:24:54.136Z,48.49
2016-04-26T10:25:53.980Z,48.68
2016-04-26T10:26:54.156Z,48.49
2016-04-26T10:27:54.175Z,48.02
2016-04-26T10:28:54.177Z,50.78
2016-04-26T10:29:54.196Z,53.06
2016-04-26T10:30:53.463Z,54.02
2016-04-26T10:31:54.233Z,54.27
2016-04-26T10:32:54.250Z,54.66
2016-04-26T10:33:54.097Z,55.13
2016-04-26T10:34:54.288Z,53.99
2016-04-26T10:35:54.274Z,55.04
2016-04-26T10:36:54.292Z,54.47
2016-04-26T10:37:54.327Z,53.89
2016-04-26T10:38:58.094Z,53.7
2016-04-26T10:39:54.348Z,53.42
2016-04-26T10:40:54.350Z,53.04
2016-04-26T10:41:54.368Z,53.13
2016-04-26T10:42:54.386Z,53.23
2016-04-26T10:43:54.389Z,53.89
2016-04-26T10:44:54.407Z,53.89
2016-04-26T10:45:54.426Z,53.89
2016-04-26T10:46:54.444Z,54.85
2016-04-26T10:47:54.462Z,53.13
2016-04-26T10:48:54.825Z,53.32
2016-04-26T10:49:54.483Z,53.04
2016-04-26T10:50:54.503Z,52.84
2016-04-26T10:51:54.520Z,53.52
2016-04-26T10:52:54.522Z,53.01
2016-04-26T10:53:54.541Z,53.77
2016-04-26T10:54:54.559Z,54.25
2016-04-26T10:55:54.577Z,54.35
2016-04-26T10:56:54.581Z,55.39
2016-04-26T10:57:54.599Z,56.15
2016-04-26T10:58:54.570Z,57.01
2016-04-26T10:59:54.635Z,57.29
2016-04-26T11:00:54.654Z,57.67
2016-04-26T11:01:54.641Z,58.25
2016-04-26T11:02:54.660Z,56.44
2016-04-26T11:03:54.741Z,57.01
2016-04-26T11:04:54.696Z,57.2
2016-04-26T11:05:54.713Z,57.2
2016-04-26T11:06:54.749Z,57.2
2016-04-26T11:07:54.735Z,58.22
2016-04-26T11:08:54.754Z,58.88
2016-04-26T11:09:54.757Z,59.07
2016-04-26T11:10:54.774Z,60.5
2016-04-26T11:11:54.793Z,61.07
2016-04-26T11:12:54.795Z,60.12
2016-04-26T11:13:57.018Z,59.17
2016-04-26T11:14:54.832Z,58.79
2016-04-26T11:15:54.835Z,57.93
2016-04-26T11:16:54.853Z,60.12
2016-04-26T11:17:55.418Z,60.75
2016-04-26T11:18:54.874Z,61.23
2016-04-26T11:19:54.892Z,61.52
2016-04-26T11:20:54.895Z,61.9
2016-04-26T11:21:54.914Z,63.04
2016-04-26T11:22:54.931Z,63.04
2016-04-26T11:23:54.950Z,62.43
2016-04-26T11:24:54.953Z,62.91
2016-04-26T11:25:54.972Z,63.76
2016-04-26T11:26:54.974Z,63.48
2016-04-26T11:27:55.008Z,64.4
2016-04-26T11:28:55.011Z,65.16
2016-04-26T11:29:55.029Z,65.92
2016-04-26T11:30:55.047Z,64.49
2016-04-26T11:31:55.050Z,66.11
2016-04-26T11:32:55.052Z,66.77
2016-04-26T11:33:55.071Z,66.67
2016-04-26T11:34:55.089Z,67.53
2016-04-26T11:35:55.092Z,68.29
2016-04-26T11:36:55.110Z,67.91
2016-04-26T11:37:55.112Z,68.67
2016-04-26T11:38:55.116Z,68.67
2016-04-26T11:39:55.134Z,68.54
2016-04-26T11:40:55.168Z,67.91
2016-04-26T11:41:55.155Z,68.48
2016-04-26T11:42:55.188Z,69.3
2016-04-26T11:43:55.190Z,70.15
2016-04-26T11:44:55.303Z,69.78
2016-04-26T11:45:55.197Z,70.92
2016-04-26T11:46:55.215Z,72.53
2016-04-26T11:47:55.968Z,72.66
2016-04-26T11:48:55.455Z,72.47
2016-04-26T11:49:55.286Z,71.33
2016-04-26T11:50:55.273Z,70.76
2016-04-26T11:51:55.291Z,70.38
2016-04-26T11:52:55.294Z,70.29
2016-04-26T11:53:55.297Z,70.29
2016-04-26T11:54:55.331Z,71.71
2016-04-26T11:55:55.381Z,72.34
2016-04-26T11:56:55.367Z,71.96
2016-04-26T11:57:55.353Z,72.28
2016-04-26T11:58:55.372Z,71.39
2016-04-26T11:59:55.359Z,71.3
2016-04-26T12:00:55.377Z,71.96
2016-04-26T12:01:55.396Z,72.34
2016-04-26T12:02:55.414Z,71.77
2016-04-26T12:03:55.433Z,72.15
2016-04-26T12:04:55.419Z,71.2
2016-04-26T12:05:55.438Z,71.96
2016-04-26T12:06:55.457Z,72.91
2016-04-26T12:07:55.460Z,73.38
2016-04-26T12:08:55.477Z,73.29
2016-04-26T12:09:55.496Z,72.81
2016-04-26T12:10:55.498Z,72.81
2016-04-26T12:11:55.502Z,73.96
2016-04-26T12:12:55.504Z,74.52
2016-04-26T12:13:55.521Z,73.38
2016-04-26T12:14:55.540Z,73.19
2016-04-26T12:15:55.590Z,74.9
2016-04-26T12:16:55.592Z,75
2016-04-26T12:17:55.580Z,73.57
2016-04-26T12:18:56.348Z,72.72
2016-04-26T12:19:55.585Z,73.25
2016-04-26T12:20:55.619Z,74.2
2016-04-26T12:21:55.606Z,74.96
2016-04-26T12:22:55.624Z,75.62
2016-04-26T12:23:55.658Z,76.48
2016-04-26T12:24:55.645Z,75.72
2016-04-26T12:25:55.664Z,75.15
2016-04-26T12:26:55.666Z,76.01
2016-04-26T12:27:55.684Z,76.01
2016-04-26T12:28:55.703Z,75.72
2016-04-26T12:29:55.706Z,74.96
2016-04-26T12:30:55.708Z,74.87
2016-04-26T12:31:55.727Z,74.87
2016-04-26T12:32:55.730Z,75.91
2016-04-26T12:33:56.029Z,75.91
2016-04-26T12:34:55.766Z,75.24
2016-04-26T12:35:55.768Z,73.82
2016-04-26T12:36:55.772Z,76.01
2016-04-26T12:37:55.790Z,76.29
2016-04-26T12:38:55.824Z,76.01
2016-04-26T12:39:55.842Z,76.39
2016-04-26T12:40:55.813Z,75.24
2016-04-26T12:41:55.832Z,75.72
2016-04-26T12:42:55.835Z,75.43
2016-04-26T12:43:55.853Z,75.24
2016-04-26T12:44:55.855Z,74.77
2016-04-26T12:45:55.889Z,74.77
2016-04-26T12:46:55.893Z,75.43
2016-04-26T12:47:55.896Z,76.29
2016-04-26T12:48:56.054Z,76.2
2016-04-26T12:49:55.915Z,76.39
2016-04-26T12:50:55.919Z,76.39
2016-04-26T12:51:55.953Z,75.91
2016-04-26T12:52:55.956Z,76.29
2016-04-26T12:53:55.973Z,76.67
2016-04-26T12:54:55.961Z,76.67
2016-04-26T12:55:55.979Z,76.1
2016-04-26T12:56:55.981Z,76.57